sensor_id;sensor_type;location;lat;lon;timestamp;P1;durP1;ratioP1;P2;durP2;ratioP2
1020;SDS011;499;42.648;23.270;2023-04-24T00:01:33;2.97;;;2.53;;
1020;SDS011;499;42.648;23.270;2023-04-24T00:04:03;2.83;;;2.57;;
1020;SDS011;499;42.648;23.270;2023-04-24T00:06:30;3.33;;;2.90;;
1020;SDS011;499;42.648;23.270;2023-04-24T00:08:59;3.07;;;2.70;;
1020;SDS011;499;42.648;23.270;2023-04-24T00:11:26;3.17;;;2.90;;
1020;SDS011;499;42.648;23.270;2023-04-24T00:13:53;3.90;;;3.50;;
1020;SDS011;499;42.648;23.270;2023-04-24T00:16:20;4.50;;;3.40;;
1020;SDS011;499;42.648;23.270;2023-04-24T00:18:47;3.43;;;3.03;;
1020;SDS011;499;42.648;23.270;2023-04-24T00:21:16;3.37;;;2.40;;
1020;SDS011;499;42.648;23.270;2023-04-24T00:23:43;4.40;;;4.00;;
1020;SDS011;499;42.648;23.270;2023-04-24T00:26:10;3.03;;;2.73;;
1020;SDS011;499;42.648;23.270;2023-04-24T00:28:37;2.77;;;2.43;;
1020;SDS011;499;42.648;23.270;2023-04-24T00:31:04;3.27;;;2.97;;
1020;SDS011;499;42.648;23.270;2023-04-24T00:33:31;2.93;;;2.60;;
1020;SDS011;499;42.648;23.270;2023-04-24T00:35:58;3.23;;;2.93;;
1020;SDS011;499;42.648;23.270;2023-04-24T00:38:26;3.20;;;2.90;;
1020;SDS011;499;42.648;23.270;2023-04-24T00:40:53;3.03;;;2.73;;
1020;SDS011;499;42.648;23.270;2023-04-24T00:43:20;3.20;;;2.97;;
1020;SDS011;499;42.648;23.270;2023-04-24T00:45:47;4.33;;;2.77;;
1020;SDS011;499;42.648;23.270;2023-04-24T00:48:15;2.30;;;2.07;;
1020;SDS011;499;42.648;23.270;2023-04-24T00:50:43;4.17;;;2.83;;
1020;SDS011;499;42.648;23.270;2023-04-24T00:53:10;3.90;;;3.20;;
1020;SDS011;499;42.648;23.270;2023-04-24T00:55:38;3.23;;;2.70;;
1020;SDS011;499;42.648;23.270;2023-04-24T00:58:06;3.10;;;2.70;;
1020;SDS011;499;42.648;23.270;2023-04-24T01:00:33;3.30;;;3.00;;
1020;SDS011;499;42.648;23.270;2023-04-24T01:03:00;2.47;;;2.27;;
1020;SDS011;499;42.648;23.270;2023-04-24T01:05:30;4.13;;;3.70;;
1020;SDS011;499;42.648;23.270;2023-04-24T01:07:58;3.27;;;2.80;;
1020;SDS011;499;42.648;23.270;2023-04-24T01:10:26;2.67;;;2.17;;
1020;SDS011;499;42.648;23.270;2023-04-24T01:12:57;3.00;;;2.70;;
1020;SDS011;499;42.648;23.270;2023-04-24T01:15:24;2.53;;;2.33;;
1020;SDS011;499;42.648;23.270;2023-04-24T01:17:51;4.30;;;3.47;;
1020;SDS011;499;42.648;23.270;2023-04-24T01:20:19;3.43;;;3.13;;
1020;SDS011;499;42.648;23.270;2023-04-24T01:22:48;3.53;;;3.23;;
1020;SDS011;499;42.648;23.270;2023-04-24T01:25:15;3.10;;;2.80;;
1020;SDS011;499;42.648;23.270;2023-04-24T01:27:42;3.77;;;3.30;;
1020;SDS011;499;42.648;23.270;2023-04-24T01:30:09;3.57;;;3.27;;
1020;SDS011;499;42.648;23.270;2023-04-24T01:32:37;4.00;;;3.03;;
1020;SDS011;499;42.648;23.270;2023-04-24T01:35:05;5.20;;;3.70;;
1020;SDS011;499;42.648;23.270;2023-04-24T01:37:33;4.03;;;3.63;;
1020;SDS011;499;42.648;23.270;2023-04-24T01:40:03;4.20;;;3.80;;
1020;SDS011;499;42.648;23.270;2023-04-24T01:42:31;4.10;;;3.70;;
1020;SDS011;499;42.648;23.270;2023-04-24T01:44:59;2.70;;;2.50;;
1020;SDS011;499;42.648;23.270;2023-04-24T01:47:26;3.70;;;2.73;;
1020;SDS011;499;42.648;23.270;2023-04-24T01:49:54;4.57;;;3.23;;
1020;SDS011;499;42.648;23.270;2023-04-24T01:52:21;4.10;;;3.70;;
1020;SDS011;499;42.648;23.270;2023-04-24T01:54:48;3.87;;;3.30;;
1020;SDS011;499;42.648;23.270;2023-04-24T01:57:17;4.27;;;3.87;;
1020;SDS011;499;42.648;23.270;2023-04-24T01:59:44;4.57;;;3.43;;
1020;SDS011;499;42.648;23.270;2023-04-24T02:02:11;4.90;;;4.50;;
1020;SDS011;499;42.648;23.270;2023-04-24T02:04:38;4.20;;;3.10;;
1020;SDS011;499;42.648;23.270;2023-04-24T02:07:05;3.47;;;3.17;;
1020;SDS011;499;42.648;23.270;2023-04-24T02:09:33;4.60;;;3.13;;
1020;SDS011;499;42.648;23.270;2023-04-24T02:12:00;4.47;;;3.50;;
1020;SDS011;499;42.648;23.270;2023-04-24T02:14:28;4.60;;;3.80;;
1020;SDS011;499;42.648;23.270;2023-04-24T02:16:55;3.90;;;3.07;;
1020;SDS011;499;42.648;23.270;2023-04-24T02:19:22;3.53;;;3.23;;
1020;SDS011;499;42.648;23.270;2023-04-24T02:21:49;3.10;;;2.57;;
1020;SDS011;499;42.648;23.270;2023-04-24T02:24:16;4.10;;;3.70;;
1020;SDS011;499;42.648;23.270;2023-04-24T02:26:43;3.10;;;2.80;;
1020;SDS011;499;42.648;23.270;2023-04-24T02:29:10;3.63;;;3.33;;
1020;SDS011;499;42.648;23.270;2023-04-24T02:31:39;4.10;;;3.63;;
1020;SDS011;499;42.648;23.270;2023-04-24T02:34:06;4.10;;;3.47;;
1020;SDS011;499;42.648;23.270;2023-04-24T02:36:33;4.83;;;3.13;;
1020;SDS011;499;42.648;23.270;2023-04-24T02:39:00;4.23;;;3.40;;
1020;SDS011;499;42.648;23.270;2023-04-24T02:41:27;3.20;;;2.87;;
1020;SDS011;499;42.648;23.270;2023-04-24T02:43:56;4.27;;;3.87;;
1020;SDS011;499;42.648;23.270;2023-04-24T02:46:23;5.50;;;3.60;;
1020;SDS011;499;42.648;23.270;2023-04-24T02:48:52;4.00;;;3.70;;
1020;SDS011;499;42.648;23.270;2023-04-24T02:51:19;4.57;;;3.50;;
1020;SDS011;499;42.648;23.270;2023-04-24T02:53:46;3.17;;;2.87;;
1020;SDS011;499;42.648;23.270;2023-04-24T02:56:13;3.70;;;2.60;;
1020;SDS011;499;42.648;23.270;2023-04-24T02:58:40;4.77;;;4.37;;
1020;SDS011;499;42.648;23.270;2023-04-24T03:01:07;2.40;;;2.20;;
1020;SDS011;499;42.648;23.270;2023-04-24T03:03:35;2.67;;;2.47;;
1020;SDS011;499;42.648;23.270;2023-04-24T03:06:03;3.30;;;3.00;;
1020;SDS011;499;42.648;23.270;2023-04-24T03:08:31;1.90;;;1.73;;
1020;SDS011;499;42.648;23.270;2023-04-24T03:10:58;3.00;;;2.70;;
1020;SDS011;499;42.648;23.270;2023-04-24T03:13:25;3.93;;;3.37;;
1020;SDS011;499;42.648;23.270;2023-04-24T03:15:52;3.67;;;3.37;;
1020;SDS011;499;42.648;23.270;2023-04-24T03:18:19;4.43;;;3.10;;
1020;SDS011;499;42.648;23.270;2023-04-24T03:20:46;4.53;;;3.37;;
1020;SDS011;499;42.648;23.270;2023-04-24T03:23:14;5.90;;;3.43;;
1020;SDS011;499;42.648;23.270;2023-04-24T03:25:41;1.90;;;1.67;;
1020;SDS011;499;42.648;23.270;2023-04-24T03:28:08;3.53;;;3.13;;
1020;SDS011;499;42.648;23.270;2023-04-24T03:30:36;2.10;;;1.90;;
1020;SDS011;499;42.648;23.270;2023-04-24T03:33:03;4.07;;;3.50;;
1020;SDS011;499;42.648;23.270;2023-04-24T03:35:30;3.03;;;2.73;;
1020;SDS011;499;42.648;23.270;2023-04-24T03:37:57;4.13;;;3.53;;
1020;SDS011;499;42.648;23.270;2023-04-24T03:40:25;3.60;;;3.07;;
1020;SDS011;499;42.648;23.270;2023-04-24T03:42:54;4.47;;;3.20;;
1020;SDS011;499;42.648;23.270;2023-04-24T03:45:21;3.17;;;2.87;;
1020;SDS011;499;42.648;23.270;2023-04-24T03:47:49;3.67;;;3.27;;
1020;SDS011;499;42.648;23.270;2023-04-24T03:50:16;4.27;;;3.33;;
1020;SDS011;499;42.648;23.270;2023-04-24T03:52:43;3.47;;;2.93;;
1020;SDS011;499;42.648;23.270;2023-04-24T03:55:10;4.73;;;4.10;;
1020;SDS011;499;42.648;23.270;2023-04-24T03:57:40;4.30;;;3.70;;
1020;SDS011;499;42.648;23.270;2023-04-24T04:00:07;2.60;;;2.40;;
1020;SDS011;499;42.648;23.270;2023-04-24T04:02:35;4.17;;;3.77;;
1020;SDS011;499;42.648;23.270;2023-04-24T04:05:02;4.97;;;3.93;;
1020;SDS011;499;42.648;23.270;2023-04-24T04:07:30;4.70;;;4.17;;
1020;SDS011;499;42.648;23.270;2023-04-24T04:09:57;5.50;;;4.90;;
1020;SDS011;499;42.648;23.270;2023-04-24T04:12:24;2.90;;;2.53;;
1020;SDS011;499;42.648;23.270;2023-04-24T04:14:52;5.60;;;4.10;;
1020;SDS011;499;42.648;23.270;2023-04-24T04:17:19;3.87;;;3.20;;
1020;SDS011;499;42.648;23.270;2023-04-24T04:19:46;7.37;;;4.40;;
1020;SDS011;499;42.648;23.270;2023-04-24T04:22:13;3.87;;;3.47;;
1020;SDS011;499;42.648;23.270;2023-04-24T04:24:40;3.97;;;3.07;;
1020;SDS011;499;42.648;23.270;2023-04-24T04:27:08;4.27;;;2.87;;
1020;SDS011;499;42.648;23.270;2023-04-24T04:29:36;5.40;;;3.50;;
1020;SDS011;499;42.648;23.270;2023-04-24T04:32:04;3.87;;;2.87;;
1020;SDS011;499;42.648;23.270;2023-04-24T04:34:32;5.70;;;4.60;;
1020;SDS011;499;42.648;23.270;2023-04-24T04:36:59;8.23;;;5.33;;
1020;SDS011;499;42.648;23.270;2023-04-24T04:39:26;5.20;;;4.23;;
1020;SDS011;499;42.648;23.270;2023-04-24T04:41:54;5.40;;;4.10;;
1020;SDS011;499;42.648;23.270;2023-04-24T04:44:22;3.63;;;2.60;;
1020;SDS011;499;42.648;23.270;2023-04-24T04:46:49;3.23;;;2.60;;
1020;SDS011;499;42.648;23.270;2023-04-24T04:49:19;4.20;;;3.37;;
1020;SDS011;499;42.648;23.270;2023-04-24T04:51:46;5.97;;;3.77;;
1020;SDS011;499;42.648;23.270;2023-04-24T04:54:13;3.80;;;3.47;;
1020;SDS011;499;42.648;23.270;2023-04-24T04:56:40;7.03;;;3.50;;
1020;SDS011;499;42.648;23.270;2023-04-24T04:59:07;3.97;;;3.20;;
1020;SDS011;499;42.648;23.270;2023-04-24T05:01:36;2.93;;;2.53;;
1020;SDS011;499;42.648;23.270;2023-04-24T05:04:03;3.50;;;3.20;;
1020;SDS011;499;42.648;23.270;2023-04-24T05:06:31;3.57;;;3.27;;
1020;SDS011;499;42.648;23.270;2023-04-24T05:08:58;3.50;;;2.60;;
1020;SDS011;499;42.648;23.270;2023-04-24T05:11:25;3.00;;;2.80;;
1020;SDS011;499;42.648;23.270;2023-04-24T05:13:52;3.73;;;2.80;;
1020;SDS011;499;42.648;23.270;2023-04-24T05:16:19;3.60;;;3.00;;
1020;SDS011;499;42.648;23.270;2023-04-24T05:18:46;3.63;;;2.67;;
1020;SDS011;499;42.648;23.270;2023-04-24T05:21:13;3.60;;;3.13;;
1020;SDS011;499;42.648;23.270;2023-04-24T05:23:41;4.43;;;3.63;;
1020;SDS011;499;42.648;23.270;2023-04-24T05:26:08;3.43;;;3.13;;
1020;SDS011;499;42.648;23.270;2023-04-24T05:28:35;4.50;;;3.10;;
1020;SDS011;499;42.648;23.270;2023-04-24T05:31:02;5.10;;;3.33;;
1020;SDS011;499;42.648;23.270;2023-04-24T05:33:30;4.13;;;3.17;;
1020;SDS011;499;42.648;23.270;2023-04-24T05:35:57;3.40;;;3.10;;
1020;SDS011;499;42.648;23.270;2023-04-24T05:38:24;4.83;;;4.37;;
1020;SDS011;499;42.648;23.270;2023-04-24T05:40:52;4.20;;;3.27;;
1020;SDS011;499;42.648;23.270;2023-04-24T05:43:19;3.50;;;3.17;;
1020;SDS011;499;42.648;23.270;2023-04-24T05:45:46;4.77;;;3.17;;
1020;SDS011;499;42.648;23.270;2023-04-24T05:48:13;3.77;;;3.30;;
1020;SDS011;499;42.648;23.270;2023-04-24T05:50:40;3.63;;;3.30;;
1020;SDS011;499;42.648;23.270;2023-04-24T05:53:07;3.30;;;3.00;;
1020;SDS011;499;42.648;23.270;2023-04-24T05:55:35;4.10;;;3.70;;
1020;SDS011;499;42.648;23.270;2023-04-24T05:58:04;4.50;;;4.00;;
1020;SDS011;499;42.648;23.270;2023-04-24T06:00:31;3.70;;;3.30;;
1020;SDS011;499;42.648;23.270;2023-04-24T06:02:59;3.83;;;3.43;;
1020;SDS011;499;42.648;23.270;2023-04-24T06:05:28;3.23;;;2.80;;
1020;SDS011;499;42.648;23.270;2023-04-24T06:07:56;3.20;;;2.90;;
1020;SDS011;499;42.648;23.270;2023-04-24T06:10:23;4.07;;;3.03;;
1020;SDS011;499;42.648;23.270;2023-04-24T06:12:50;4.30;;;3.67;;
1020;SDS011;499;42.648;23.270;2023-04-24T06:15:18;4.13;;;2.93;;
1020;SDS011;499;42.648;23.270;2023-04-24T06:17:45;3.80;;;3.40;;
1020;SDS011;499;42.648;23.270;2023-04-24T06:20:13;5.60;;;3.57;;
1020;SDS011;499;42.648;23.270;2023-04-24T06:22:40;3.77;;;3.20;;
1020;SDS011;499;42.648;23.270;2023-04-24T06:25:07;3.03;;;2.73;;
1020;SDS011;499;42.648;23.270;2023-04-24T06:27:35;3.87;;;3.57;;
1020;SDS011;499;42.648;23.270;2023-04-24T06:30:02;3.77;;;3.47;;
1020;SDS011;499;42.648;23.270;2023-04-24T06:32:31;4.33;;;3.70;;
1020;SDS011;499;42.648;23.270;2023-04-24T06:34:58;3.83;;;2.70;;
1020;SDS011;499;42.648;23.270;2023-04-24T06:37:26;3.70;;;2.93;;
1020;SDS011;499;42.648;23.270;2023-04-24T06:39:53;3.30;;;2.60;;
1020;SDS011;499;42.648;23.270;2023-04-24T06:42:22;5.17;;;2.50;;
1020;SDS011;499;42.648;23.270;2023-04-24T06:44:50;2.40;;;2.20;;
1020;SDS011;499;42.648;23.270;2023-04-24T06:47:17;6.70;;;3.87;;
1020;SDS011;499;42.648;23.270;2023-04-24T06:49:45;4.87;;;2.47;;
1020;SDS011;499;42.648;23.270;2023-04-24T06:52:13;3.70;;;3.30;;
1020;SDS011;499;42.648;23.270;2023-04-24T06:54:41;3.77;;;3.37;;
1020;SDS011;499;42.648;23.270;2023-04-24T06:57:08;3.70;;;2.97;;
1020;SDS011;499;42.648;23.270;2023-04-24T06:59:35;2.70;;;2.33;;
1020;SDS011;499;42.648;23.270;2023-04-24T07:02:02;2.80;;;2.53;;
1020;SDS011;499;42.648;23.270;2023-04-24T07:04:29;3.30;;;2.70;;
1020;SDS011;499;42.648;23.270;2023-04-24T07:06:58;3.37;;;3.00;;
1020;SDS011;499;42.648;23.270;2023-04-24T07:09:26;3.37;;;2.60;;
1020;SDS011;499;42.648;23.270;2023-04-24T07:11:53;3.77;;;2.13;;
1020;SDS011;499;42.648;23.270;2023-04-24T07:14:22;3.17;;;2.87;;
1020;SDS011;499;42.648;23.270;2023-04-24T07:16:49;5.20;;;2.60;;
1020;SDS011;499;42.648;23.270;2023-04-24T07:19:17;3.57;;;3.27;;
1020;SDS011;499;42.648;23.270;2023-04-24T07:21:47;3.43;;;2.27;;
1020;SDS011;499;42.648;23.270;2023-04-24T07:24:16;2.03;;;1.83;;
1020;SDS011;499;42.648;23.270;2023-04-24T07:26:43;4.50;;;2.60;;
1020;SDS011;499;42.648;23.270;2023-04-24T07:29:12;3.90;;;2.03;;
1020;SDS011;499;42.648;23.270;2023-04-24T07:31:39;4.33;;;2.40;;
1020;SDS011;499;42.648;23.270;2023-04-24T07:34:06;2.63;;;2.40;;
1020;SDS011;499;42.648;23.270;2023-04-24T07:36:33;3.40;;;2.20;;
1020;SDS011;499;42.648;23.270;2023-04-24T07:39:01;2.80;;;2.27;;
1020;SDS011;499;42.648;23.270;2023-04-24T07:41:29;2.43;;;2.13;;
1020;SDS011;499;42.648;23.270;2023-04-24T07:43:56;2.60;;;2.37;;
1020;SDS011;499;42.648;23.270;2023-04-24T07:46:24;2.60;;;1.70;;
1020;SDS011;499;42.648;23.270;2023-04-24T07:48:54;2.70;;;1.90;;
1020;SDS011;499;42.648;23.270;2023-04-24T07:51:24;2.50;;;2.10;;
1020;SDS011;499;42.648;23.270;2023-04-24T07:53:52;2.57;;;2.20;;
1020;SDS011;499;42.648;23.270;2023-04-24T07:56:19;3.27;;;2.77;;
1020;SDS011;499;42.648;23.270;2023-04-24T07:58:48;2.27;;;2.00;;
1020;SDS011;499;42.648;23.270;2023-04-24T08:01:15;2.80;;;2.53;;
1020;SDS011;499;42.648;23.270;2023-04-24T08:03:42;3.50;;;2.67;;
1020;SDS011;499;42.648;23.270;2023-04-24T08:06:09;2.27;;;1.90;;
1020;SDS011;499;42.648;23.270;2023-04-24T08:08:39;6.67;;;3.40;;
1020;SDS011;499;42.648;23.270;2023-04-24T08:11:06;2.63;;;2.17;;
1020;SDS011;499;42.648;23.270;2023-04-24T08:13:33;3.60;;;3.30;;
1020;SDS011;499;42.648;23.270;2023-04-24T08:16:01;2.57;;;2.00;;
1020;SDS011;499;42.648;23.270;2023-04-24T08:18:28;2.50;;;2.20;;
1020;SDS011;499;42.648;23.270;2023-04-24T08:20:55;2.23;;;2.03;;
1020;SDS011;499;42.648;23.270;2023-04-24T08:23:26;3.50;;;3.20;;
1020;SDS011;499;42.648;23.270;2023-04-24T08:25:53;2.90;;;2.17;;
1020;SDS011;499;42.648;23.270;2023-04-24T08:28:21;3.20;;;2.70;;
1020;SDS011;499;42.648;23.270;2023-04-24T08:30:49;2.10;;;1.80;;
1020;SDS011;499;42.648;23.270;2023-04-24T08:33:21;3.30;;;2.57;;
1020;SDS011;499;42.648;23.270;2023-04-24T08:35:48;3.10;;;2.40;;
1020;SDS011;499;42.648;23.270;2023-04-24T08:38:15;2.87;;;2.40;;
1020;SDS011;499;42.648;23.270;2023-04-24T08:40:42;4.07;;;2.67;;
1020;SDS011;499;42.648;23.270;2023-04-24T08:43:11;2.70;;;2.43;;
1020;SDS011;499;42.648;23.270;2023-04-24T08:45:39;2.63;;;1.90;;
1020;SDS011;499;42.648;23.270;2023-04-24T08:48:06;2.10;;;1.87;;
1020;SDS011;499;42.648;23.270;2023-04-24T08:50:36;3.40;;;2.10;;
1020;SDS011;499;42.648;23.270;2023-04-24T08:53:06;4.13;;;2.90;;
1020;SDS011;499;42.648;23.270;2023-04-24T08:55:34;2.33;;;1.63;;
1020;SDS011;499;42.648;23.270;2023-04-24T08:58:01;3.87;;;2.90;;
1020;SDS011;499;42.648;23.270;2023-04-24T09:00:29;4.07;;;2.90;;
1020;SDS011;499;42.648;23.270;2023-04-24T09:02:56;2.63;;;2.20;;
1020;SDS011;499;42.648;23.270;2023-04-24T09:05:27;3.40;;;2.30;;
1020;SDS011;499;42.648;23.270;2023-04-24T09:07:56;2.50;;;2.23;;
1020;SDS011;499;42.648;23.270;2023-04-24T09:10:25;2.10;;;1.60;;
1020;SDS011;499;42.648;23.270;2023-04-24T09:12:55;3.33;;;2.23;;
1020;SDS011;499;42.648;23.270;2023-04-24T09:15:26;5.57;;;4.53;;
1020;SDS011;499;42.648;23.270;2023-04-24T09:17:53;2.33;;;1.70;;
1020;SDS011;499;42.648;23.270;2023-04-24T09:20:21;3.23;;;2.37;;
1020;SDS011;499;42.648;23.270;2023-04-24T09:22:48;2.27;;;1.47;;
1020;SDS011;499;42.648;23.270;2023-04-24T09:25:22;2.30;;;2.10;;
1020;SDS011;499;42.648;23.270;2023-04-24T09:27:59;2.53;;;2.10;;
1020;SDS011;499;42.648;23.270;2023-04-24T09:30:27;3.00;;;2.70;;
1020;SDS011;499;42.648;23.270;2023-04-24T09:33:12;2.10;;;1.70;;
1020;SDS011;499;42.648;23.270;2023-04-24T09:35:41;2.40;;;1.47;;
1020;SDS011;499;42.648;23.270;2023-04-24T09:38:09;2.47;;;2.27;;
1020;SDS011;499;42.648;23.270;2023-04-24T09:40:37;3.13;;;2.33;;
1020;SDS011;499;42.648;23.270;2023-04-24T09:43:09;2.90;;;2.50;;
1020;SDS011;499;42.648;23.270;2023-04-24T09:45:37;2.80;;;1.90;;
1020;SDS011;499;42.648;23.270;2023-04-24T09:48:07;2.60;;;1.93;;
1020;SDS011;499;42.648;23.270;2023-04-24T09:50:35;3.47;;;1.70;;
1020;SDS011;499;42.648;23.270;2023-04-24T09:53:03;2.60;;;1.73;;
1020;SDS011;499;42.648;23.270;2023-04-24T09:55:33;2.90;;;2.13;;
1020;SDS011;499;42.648;23.270;2023-04-24T09:58:11;3.10;;;2.10;;
1020;SDS011;499;42.648;23.270;2023-04-24T10:00:46;2.20;;;1.67;;
1020;SDS011;499;42.648;23.270;2023-04-24T10:03:23;4.20;;;2.13;;
1020;SDS011;499;42.648;23.270;2023-04-24T10:06:15;1.60;;;1.30;;
1020;SDS011;499;42.648;23.270;2023-04-24T10:08:44;2.70;;;2.00;;
1020;SDS011;499;42.648;23.270;2023-04-24T10:11:13;2.23;;;1.80;;
1020;SDS011;499;42.648;23.270;2023-04-24T10:13:41;2.17;;;1.80;;
1020;SDS011;499;42.648;23.270;2023-04-24T10:16:08;1.93;;;1.43;;
1020;SDS011;499;42.648;23.270;2023-04-24T10:18:37;2.53;;;1.50;;
1020;SDS011;499;42.648;23.270;2023-04-24T10:21:06;2.07;;;1.30;;
1020;SDS011;499;42.648;23.270;2023-04-24T10:23:34;1.67;;;1.40;;
1020;SDS011;499;42.648;23.270;2023-04-24T10:26:02;1.60;;;1.27;;
1020;SDS011;499;42.648;23.270;2023-04-24T10:28:31;3.33;;;2.23;;
1020;SDS011;499;42.648;23.270;2023-04-24T10:31:00;2.27;;;1.53;;
1020;SDS011;499;42.648;23.270;2023-04-24T10:33:28;2.30;;;1.73;;
1020;SDS011;499;42.648;23.270;2023-04-24T10:35:56;3.33;;;1.90;;
1020;SDS011;499;42.648;23.270;2023-04-24T10:38:25;2.07;;;1.30;;
1020;SDS011;499;42.648;23.270;2023-04-24T10:40:57;2.07;;;1.50;;
1020;SDS011;499;42.648;23.270;2023-04-24T10:43:35;2.33;;;1.30;;
1020;SDS011;499;42.648;23.270;2023-04-24T10:46:03;2.27;;;1.70;;
1020;SDS011;499;42.648;23.270;2023-04-24T10:48:32;1.70;;;1.40;;
1020;SDS011;499;42.648;23.270;2023-04-24T10:51:00;2.70;;;1.90;;
1020;SDS011;499;42.648;23.270;2023-04-24T10:53:28;2.00;;;1.20;;
1020;SDS011;499;42.648;23.270;2023-04-24T10:55:59;2.67;;;1.80;;
1020;SDS011;499;42.648;23.270;2023-04-24T10:58:38;3.10;;;1.50;;
1020;SDS011;499;42.648;23.270;2023-04-24T11:01:10;3.80;;;1.63;;
1020;SDS011;499;42.648;23.270;2023-04-24T11:03:50;1.53;;;1.30;;
1020;SDS011;499;42.648;23.270;2023-04-24T11:06:28;2.63;;;1.90;;
1020;SDS011;499;42.648;23.270;2023-04-24T11:08:59;2.47;;;1.70;;
1020;SDS011;499;42.648;23.270;2023-04-24T11:11:30;2.00;;;1.07;;
1020;SDS011;499;42.648;23.270;2023-04-24T11:14:02;2.23;;;1.30;;
1020;SDS011;499;42.648;23.270;2023-04-24T11:16:34;2.70;;;1.50;;
1020;SDS011;499;42.648;23.270;2023-04-24T11:19:04;1.73;;;1.10;;
1020;SDS011;499;42.648;23.270;2023-04-24T11:21:33;1.67;;;1.20;;
1020;SDS011;499;42.648;23.270;2023-04-24T11:24:26;1.60;;;1.10;;
1020;SDS011;499;42.648;23.270;2023-04-24T11:26:58;1.40;;;1.00;;
1020;SDS011;499;42.648;23.270;2023-04-24T11:29:40;3.37;;;1.47;;
1020;SDS011;499;42.648;23.270;2023-04-24T11:32:19;1.87;;;1.17;;
1020;SDS011;499;42.648;23.270;2023-04-24T11:34:51;2.33;;;1.57;;
1020;SDS011;499;42.648;23.270;2023-04-24T11:37:19;1.80;;;1.33;;
1020;SDS011;499;42.648;23.270;2023-04-24T11:39:46;2.47;;;1.70;;
1020;SDS011;499;42.648;23.270;2023-04-24T11:42:16;1.90;;;1.50;;
1020;SDS011;499;42.648;23.270;2023-04-24T11:44:44;1.93;;;1.30;;
1020;SDS011;499;42.648;23.270;2023-04-24T11:47:13;2.03;;;1.30;;
1020;SDS011;499;42.648;23.270;2023-04-24T11:49:41;2.40;;;1.73;;
1020;SDS011;499;42.648;23.270;2023-04-24T11:52:08;2.97;;;2.17;;
1020;SDS011;499;42.648;23.270;2023-04-24T11:54:35;3.83;;;2.30;;
1020;SDS011;499;42.648;23.270;2023-04-24T11:57:03;2.60;;;2.17;;
1020;SDS011;499;42.648;23.270;2023-04-24T11:59:34;2.33;;;1.90;;
1020;SDS011;499;42.648;23.270;2023-04-24T12:02:03;3.47;;;2.50;;
1020;SDS011;499;42.648;23.270;2023-04-24T12:04:38;1.93;;;1.43;;
1020;SDS011;499;42.648;23.270;2023-04-24T12:07:06;2.80;;;1.37;;
1020;SDS011;499;42.648;23.270;2023-04-24T12:09:40;1.80;;;1.30;;
1020;SDS011;499;42.648;23.270;2023-04-24T12:12:08;2.27;;;1.90;;
1020;SDS011;499;42.648;23.270;2023-04-24T12:14:44;2.10;;;1.37;;
1020;SDS011;499;42.648;23.270;2023-04-24T12:17:14;2.33;;;1.57;;
1020;SDS011;499;42.648;23.270;2023-04-24T12:19:45;2.40;;;1.90;;
1020;SDS011;499;42.648;23.270;2023-04-24T12:22:13;1.73;;;1.33;;
1020;SDS011;499;42.648;23.270;2023-04-24T12:24:57;1.90;;;1.67;;
1020;SDS011;499;42.648;23.270;2023-04-24T12:27:25;1.50;;;1.10;;
1020;SDS011;499;42.648;23.270;2023-04-24T12:29:53;2.17;;;1.57;;
1020;SDS011;499;42.648;23.270;2023-04-24T12:32:24;2.93;;;2.60;;
1020;SDS011;499;42.648;23.270;2023-04-24T12:34:52;2.20;;;1.73;;
1020;SDS011;499;42.648;23.270;2023-04-24T12:37:20;2.17;;;1.50;;
1020;SDS011;499;42.648;23.270;2023-04-24T12:42:33;2.20;;;1.20;;
1020;SDS011;499;42.648;23.270;2023-04-24T12:45:02;2.57;;;1.47;;
1020;SDS011;499;42.648;23.270;2023-04-24T12:47:32;1.73;;;1.37;;
1020;SDS011;499;42.648;23.270;2023-04-24T12:50:00;1.50;;;1.17;;
1020;SDS011;499;42.648;23.270;2023-04-24T12:52:28;3.03;;;1.70;;
1020;SDS011;499;42.648;23.270;2023-04-24T12:54:56;4.53;;;1.57;;
1020;SDS011;499;42.648;23.270;2023-04-24T12:57:25;1.80;;;1.33;;
1020;SDS011;499;42.648;23.270;2023-04-24T12:59:53;2.40;;;2.17;;
1020;SDS011;499;42.648;23.270;2023-04-24T13:02:21;2.03;;;1.07;;
1020;SDS011;499;42.648;23.270;2023-04-24T13:04:50;1.93;;;1.17;;
1020;SDS011;499;42.648;23.270;2023-04-24T13:07:17;2.20;;;1.33;;
1020;SDS011;499;42.648;23.270;2023-04-24T13:09:45;1.67;;;1.10;;
1020;SDS011;499;42.648;23.270;2023-04-24T13:12:13;1.73;;;0.83;;
1020;SDS011;499;42.648;23.270;2023-04-24T13:14:41;1.50;;;1.13;;
1020;SDS011;499;42.648;23.270;2023-04-24T13:17:08;1.60;;;1.13;;
1020;SDS011;499;42.648;23.270;2023-04-24T13:19:37;1.90;;;1.40;;
1020;SDS011;499;42.648;23.270;2023-04-24T13:22:06;1.90;;;1.40;;
1020;SDS011;499;42.648;23.270;2023-04-24T13:24:35;2.40;;;1.83;;
1020;SDS011;499;42.648;23.270;2023-04-24T13:27:02;1.97;;;1.50;;
1020;SDS011;499;42.648;23.270;2023-04-24T13:29:29;1.50;;;1.37;;
1020;SDS011;499;42.648;23.270;2023-04-24T13:31:57;2.27;;;1.50;;
1020;SDS011;499;42.648;23.270;2023-04-24T13:34:24;1.60;;;1.20;;
1020;SDS011;499;42.648;23.270;2023-04-24T13:36:52;1.80;;;1.30;;
1020;SDS011;499;42.648;23.270;2023-04-24T13:39:22;2.77;;;1.50;;
1020;SDS011;499;42.648;23.270;2023-04-24T13:41:49;2.10;;;1.50;;
1020;SDS011;499;42.648;23.270;2023-04-24T13:44:17;1.50;;;1.20;;
1020;SDS011;499;42.648;23.270;2023-04-24T13:46:45;2.30;;;1.33;;
1020;SDS011;499;42.648;23.270;2023-04-24T13:49:16;2.23;;;1.17;;
1020;SDS011;499;42.648;23.270;2023-04-24T13:51:44;1.87;;;1.27;;
1020;SDS011;499;42.648;23.270;2023-04-24T13:54:11;2.73;;;1.30;;
1020;SDS011;499;42.648;23.270;2023-04-24T13:56:40;1.50;;;1.20;;
1020;SDS011;499;42.648;23.270;2023-04-24T13:59:07;2.73;;;1.50;;
1020;SDS011;499;42.648;23.270;2023-04-24T14:01:34;1.93;;;1.33;;
1020;SDS011;499;42.648;23.270;2023-04-24T14:04:01;1.80;;;1.10;;
1020;SDS011;499;42.648;23.270;2023-04-24T14:06:28;1.83;;;0.93;;
1020;SDS011;499;42.648;23.270;2023-04-24T14:08:56;3.23;;;1.60;;
1020;SDS011;499;42.648;23.270;2023-04-24T14:11:24;1.67;;;1.30;;
1020;SDS011;499;42.648;23.270;2023-04-24T14:13:54;2.43;;;1.20;;
1020;SDS011;499;42.648;23.270;2023-04-24T14:16:22;1.30;;;1.07;;
1020;SDS011;499;42.648;23.270;2023-04-24T14:18:49;1.33;;;1.00;;
1020;SDS011;499;42.648;23.270;2023-04-24T14:21:16;1.63;;;1.20;;
1020;SDS011;499;42.648;23.270;2023-04-24T14:23:43;6.90;;;1.33;;
1020;SDS011;499;42.648;23.270;2023-04-24T14:26:10;2.63;;;1.20;;
1020;SDS011;499;42.648;23.270;2023-04-24T14:28:38;2.07;;;1.17;;
1020;SDS011;499;42.648;23.270;2023-04-24T14:31:06;1.40;;;1.03;;
1020;SDS011;499;42.648;23.270;2023-04-24T14:33:34;1.50;;;1.00;;
1020;SDS011;499;42.648;23.270;2023-04-24T14:36:01;2.03;;;1.23;;
1020;SDS011;499;42.648;23.270;2023-04-24T14:38:30;1.87;;;1.40;;
1020;SDS011;499;42.648;23.270;2023-04-24T14:40:57;1.67;;;1.13;;
1020;SDS011;499;42.648;23.270;2023-04-24T14:43:24;1.47;;;0.90;;
1020;SDS011;499;42.648;23.270;2023-04-24T14:45:51;2.87;;;1.53;;
1020;SDS011;499;42.648;23.270;2023-04-24T14:48:20;2.20;;;1.30;;
1020;SDS011;499;42.648;23.270;2023-04-24T14:50:47;1.80;;;1.13;;
1020;SDS011;499;42.648;23.270;2023-04-24T14:53:14;2.40;;;1.60;;
1020;SDS011;499;42.648;23.270;2023-04-24T14:55:41;1.60;;;1.23;;
1020;SDS011;499;42.648;23.270;2023-04-24T14:58:08;2.60;;;1.87;;
1020;SDS011;499;42.648;23.270;2023-04-24T15:00:35;1.50;;;0.80;;
1020;SDS011;499;42.648;23.270;2023-04-24T15:03:03;1.50;;;1.10;;
1020;SDS011;499;42.648;23.270;2023-04-24T15:05:31;2.00;;;1.40;;
1020;SDS011;499;42.648;23.270;2023-04-24T15:07:58;3.60;;;2.70;;
1020;SDS011;499;42.648;23.270;2023-04-24T15:10:26;2.27;;;1.90;;
1020;SDS011;499;42.648;23.270;2023-04-24T15:12:54;2.27;;;1.87;;
1020;SDS011;499;42.648;23.270;2023-04-24T15:15:21;3.20;;;1.70;;
1020;SDS011;499;42.648;23.270;2023-04-24T15:17:48;1.80;;;1.50;;
1020;SDS011;499;42.648;23.270;2023-04-24T15:20:15;2.23;;;1.37;;
1020;SDS011;499;42.648;23.270;2023-04-24T15:22:44;2.70;;;2.20;;
1020;SDS011;499;42.648;23.270;2023-04-24T15:25:11;1.93;;;1.47;;